メインページ
METAR-TAF:

METAR-TAF

空港 :

防府北基地

防府, 日本

緯度: 34-02N, 経度: 131-33E, 海抜: 2m

現時点の気象観測

当レポートは1時間29分前の11:27(UTC)に作成
北/北西の風 6kt
気温 17°C
湿度 77%
気圧 1012 hPa
視程10km以上
高度2500ftの雲はほとんどない
高度10000ftの千切れ雲あり

METAR: RJOF 161127Z 33006KT 9999 FEW025 BKN100 17/13 Q1012 RMK 1CU025 7AC100 A2989

時間: 21:56 (12:56 UTC)


TAF: 見つかりません

4,000以上の空港の気象観測と天気予報(METAR報とTAF報)

利用可能な観測所は地図上に黄色い丸と赤い丸で示す。

丸の上にカーソルを重ねると観測所名を参照できる。

次にクリックすると気象観測と天気予報を参照できる。

マップの切り替え:黒色「×」印の緑ボタンをクリックして拡大、「-」印の緑ボタンをクリックして縮小、緑色の三角印をクリックして隣りの地図に切り替え


METAR-TAF: